Погода Тарнавкана 2 недели

Подкарпатское воеводство, Польша

15 - 28 июля
  • 15июля
    Сегодня
    +19°
    +29°
    Облачно с прояснениями
    ВремяПогодаТемператураВлажностьДавлениеВетер, м/сВероятность осадков
    02:00Ясно и безоблачно+19°C97 %740 мм2.0 м/с2 %
    05:00Практически безоблачно+18°C99 %741 мм1.4 м/с2 %
    08:00Облачно с прояснениями+22°C85 %741 мм2.1 м/с2 %
    11:00Пасмурно, сплошная облачность+25°C71 %741 мм2.6 м/с7 %
    14:00Облачно с прояснениями+28°C58 %741 мм2.6 м/с7 %
    17:00Небольшая облачность+28°C58 %741 мм2.8 м/с18 %
    20:00Практически безоблачно+26°C77 %741 мм2.1 м/с6 %
    23:00Ясно и безоблачно+22°C87 %740 мм1.8 м/с1 %
  • 16июля
    Вторник
    +20°
    +33°
    Небольшая облачность
    ВремяПогодаТемператураВлажностьДавлениеВетер, м/сВероятность осадков
    02:00Ясно и безоблачно+21°C91 %740 мм2.2 м/с2 %
    05:00Ясно и безоблачно+20°C94 %740 мм2.0 м/с2 %
    08:00Ясно и безоблачно+25°C83 %740 мм3.0 м/с2 %
    11:00Ясно и безоблачно+30°C61 %740 мм2.9 м/с2 %
    14:00Небольшая облачность+32°C50 %739 мм3.0 м/с25 %
    17:00Облачно с прояснениями+28°C53 %738 мм3.5 м/с31 %
    20:00Небольшая облачность+27°C65 %739 мм2.1 м/с10 %
    23:00Ясно и безоблачно+24°C81 %740 мм2.3 м/с15 %
  • 17июля
    Среда
    +18°
    +29°
    Ясно и безоблачно
    ВремяПогодаТемператураВлажностьДавлениеВетер, м/сВероятность осадков
    02:00Небольшая облачность+22°C87 %741 мм2.4 м/с18 %
    05:00Облачно с прояснениями+20°C93 %742 мм2.4 м/с17 %
    08:00Облачно с прояснениями+22°C81 %743 мм3.2 м/с18 %
    11:00Ясно и безоблачно+26°C52 %744 мм3.5 м/с23 %
    14:00Ясно и безоблачно+28°C44 %744 мм3.9 м/с16 %
    17:00Практически безоблачно+27°C43 %743 мм3.3 м/с13 %
    20:00Облачно с прояснениями+25°C56 %744 мм2.3 м/с13 %
    23:00Практически безоблачно+22°C63 %744 мм2.3 м/с3 %
  • 18июля
    Четверг
    +17°
    +29°
    Облачно с прояснениями
    ВремяПогодаТемператураВлажностьДавлениеВетер, м/сВероятность осадков
    02:00Ясно и безоблачно+20°C70 %745 мм2.2 м/с9 %
    05:00Ясно и безоблачно+18°C79 %745 мм2.1 м/с13 %
    08:00Практически безоблачно+21°C62 %746 мм2.8 м/с10 %
    11:00Ясно и безоблачно+26°C47 %746 мм3.4 м/с5 %
    14:00Облачно с прояснениями+28°C41 %745 мм3.6 м/с13 %
    17:00Практически безоблачно+27°C42 %744 мм4.0 м/с17 %
    20:00Ясно и безоблачно+25°C55 %745 мм2.6 м/с7 %
    23:00Практически безоблачно+22°C65 %745 мм2.2 м/с2 %
  • 19июля
    Пятница
    +15°
    +28°
    Практически безоблачно
    ВремяПогодаТемператураВлажностьДавлениеВетер, м/сВероятность осадков
    02:00Облачно с прояснениями+19°C68 %745 мм2.0 м/с2 %
    05:00Облачно с прояснениями+18°C81 %745 мм1.7 м/с3 %
    08:00Практически безоблачно+22°C61 %745 мм2.0 м/с4 %
    11:00Практически безоблачно+26°C42 %745 мм3.4 м/с4 %
    14:00Практически безоблачно+28°C37 %744 мм3.9 м/с14 %
    17:00Практически безоблачно+27°C36 %743 мм3.9 м/с9 %
    20:00Практически безоблачно+24°C52 %742 мм2.5 м/с5 %
    23:00Ясно и безоблачно+21°C65 %742 мм2.3 м/с2 %
Мы используем cookies
Соглашаюсь